sensor_id;sensor_type;location;lat;lon;timestamp;P1;durP1;ratioP1;P2;durP2;ratioP2
70850;SDS011;58475;49.662;9.636;2022-11-11T00:02:07;25.08;;;8.27;;
70850;SDS011;58475;49.662;9.636;2022-11-11T00:04:51;19.10;;;7.53;;
70850;SDS011;58475;49.662;9.636;2022-11-11T00:07:35;33.50;;;9.07;;
70850;SDS011;58475;49.662;9.636;2022-11-11T00:10:19;37.55;;;9.40;;
70850;SDS011;58475;49.662;9.636;2022-11-11T00:13:03;21.15;;;8.00;;
70850;SDS011;58475;49.662;9.636;2022-11-11T00:15:48;33.63;;;9.38;;
70850;SDS011;58475;49.662;9.636;2022-11-11T00:18:32;46.28;;;10.98;;
70850;SDS011;58475;49.662;9.636;2022-11-11T00:21:35;23.10;;;10.07;;
70850;SDS011;58475;49.662;9.636;2022-11-11T00:24:26;25.92;;;10.32;;
70850;SDS011;58475;49.662;9.636;2022-11-11T00:27:30;55.67;;;10.02;;
70850;SDS011;58475;49.662;9.636;2022-11-11T00:30:14;53.22;;;10.13;;
70850;SDS011;58475;49.662;9.636;2022-11-11T00:32:58;55.78;;;11.60;;
70850;SDS011;58475;49.662;9.636;2022-11-11T00:35:42;31.85;;;9.40;;
70850;SDS011;58475;49.662;9.636;2022-11-11T00:38:36;22.67;;;9.30;;
70850;SDS011;58475;49.662;9.636;2022-11-11T00:41:29;29.27;;;9.10;;
70850;SDS011;58475;49.662;9.636;2022-11-11T00:44:13;34.53;;;9.32;;
70850;SDS011;58475;49.662;9.636;2022-11-11T00:46:57;27.98;;;8.75;;
70850;SDS011;58475;49.662;9.636;2022-11-11T00:49:59;30.20;;;8.80;;
70850;SDS011;58475;49.662;9.636;2022-11-11T00:53:03;31.35;;;9.20;;
70850;SDS011;58475;49.662;9.636;2022-11-11T00:55:50;26.90;;;8.48;;
70850;SDS011;58475;49.662;9.636;2022-11-11T00:58:34;22.40;;;8.70;;
70850;SDS011;58475;49.662;9.636;2022-11-11T01:01:18;29.83;;;8.68;;
70850;SDS011;58475;49.662;9.636;2022-11-11T01:04:04;27.38;;;8.55;;
70850;SDS011;58475;49.662;9.636;2022-11-11T01:06:48;19.27;;;7.80;;
70850;SDS011;58475;49.662;9.636;2022-11-11T01:09:32;15.40;;;7.70;;
70850;SDS011;58475;49.662;9.636;2022-11-11T01:12:16;21.42;;;8.45;;
70850;SDS011;58475;49.662;9.636;2022-11-11T01:15:00;25.88;;;8.57;;
70850;SDS011;58475;49.662;9.636;2022-11-11T01:17:45;16.85;;;7.18;;
70850;SDS011;58475;49.662;9.636;2022-11-11T01:20:28;20.38;;;7.72;;
70850;SDS011;58475;49.662;9.636;2022-11-11T01:23:12;21.27;;;7.75;;
70850;SDS011;58475;49.662;9.636;2022-11-11T01:26:00;14.80;;;7.25;;
70850;SDS011;58475;49.662;9.636;2022-11-11T01:29:05;46.42;;;9.27;;
70850;SDS011;58475;49.662;9.636;2022-11-11T01:31:49;22.88;;;7.95;;
70850;SDS011;58475;49.662;9.636;2022-11-11T01:34:33;18.08;;;7.45;;
70850;SDS011;58475;49.662;9.636;2022-11-11T01:37:17;17.50;;;7.18;;
70850;SDS011;58475;49.662;9.636;2022-11-11T01:40:01;14.18;;;6.95;;
70850;SDS011;58475;49.662;9.636;2022-11-11T01:42:46;15.45;;;7.22;;
70850;SDS011;58475;49.662;9.636;2022-11-11T01:48:47;18.05;;;7.10;;
70850;SDS011;58475;49.662;9.636;2022-11-11T01:54:58;23.27;;;7.07;;
70850;SDS011;58475;49.662;9.636;2022-11-11T01:57:49;16.08;;;5.82;;
70850;SDS011;58475;49.662;9.636;2022-11-11T02:00:41;23.75;;;6.47;;
70850;SDS011;58475;49.662;9.636;2022-11-11T02:03:25;14.93;;;5.80;;
70850;SDS011;58475;49.662;9.636;2022-11-11T02:06:13;14.82;;;5.53;;
70850;SDS011;58475;49.662;9.636;2022-11-11T02:08:57;13.50;;;5.40;;
70850;SDS011;58475;49.662;9.636;2022-11-11T02:11:41;27.75;;;6.38;;
70850;SDS011;58475;49.662;9.636;2022-11-11T02:14:46;16.00;;;5.68;;
70850;SDS011;58475;49.662;9.636;2022-11-11T02:17:34;14.20;;;5.72;;
70850;SDS011;58475;49.662;9.636;2022-11-11T02:20:20;16.27;;;5.53;;
70850;SDS011;58475;49.662;9.636;2022-11-11T02:23:12;8.45;;;5.00;;
70850;SDS011;58475;49.662;9.636;2022-11-11T02:26:02;16.42;;;5.95;;
70850;SDS011;58475;49.662;9.636;2022-11-11T02:28:48;13.82;;;4.90;;
70850;SDS011;58475;49.662;9.636;2022-11-11T02:31:33;12.20;;;4.88;;
70850;SDS011;58475;49.662;9.636;2022-11-11T02:34:17;23.98;;;6.30;;
70850;SDS011;58475;49.662;9.636;2022-11-11T02:37:02;9.55;;;5.35;;
70850;SDS011;58475;49.662;9.636;2022-11-11T02:39:49;11.77;;;5.65;;
70850;SDS011;58475;49.662;9.636;2022-11-11T02:42:35;26.50;;;6.90;;
70850;SDS011;58475;49.662;9.636;2022-11-11T02:45:19;14.77;;;6.20;;
70850;SDS011;58475;49.662;9.636;2022-11-11T02:48:03;10.73;;;5.78;;
70850;SDS011;58475;49.662;9.636;2022-11-11T02:50:48;18.05;;;5.78;;
70850;SDS011;58475;49.662;9.636;2022-11-11T02:53:32;17.42;;;6.22;;
70850;SDS011;58475;49.662;9.636;2022-11-11T02:56:16;27.70;;;6.07;;
70850;SDS011;58475;49.662;9.636;2022-11-11T02:59:21;19.40;;;5.93;;
70850;SDS011;58475;49.662;9.636;2022-11-11T03:02:05;36.85;;;6.95;;
70850;SDS011;58475;49.662;9.636;2022-11-11T03:04:50;18.88;;;6.18;;
70850;SDS011;58475;49.662;9.636;2022-11-11T03:07:34;41.05;;;7.30;;
70850;SDS011;58475;49.662;9.636;2022-11-11T03:10:18;31.85;;;7.03;;
70850;SDS011;58475;49.662;9.636;2022-11-11T03:13:02;34.80;;;7.00;;
70850;SDS011;58475;49.662;9.636;2022-11-11T03:15:46;27.95;;;6.50;;
70850;SDS011;58475;49.662;9.636;2022-11-11T03:18:30;18.63;;;5.97;;
70850;SDS011;58475;49.662;9.636;2022-11-11T03:21:14;12.38;;;5.40;;
70850;SDS011;58475;49.662;9.636;2022-11-11T03:23:58;22.42;;;6.15;;
70850;SDS011;58475;49.662;9.636;2022-11-11T03:26:42;16.38;;;6.72;;
70850;SDS011;58475;49.662;9.636;2022-11-11T03:29:26;13.48;;;5.78;;
70850;SDS011;58475;49.662;9.636;2022-11-11T03:32:10;12.38;;;6.10;;
70850;SDS011;58475;49.662;9.636;2022-11-11T03:34:54;23.58;;;6.32;;
70850;SDS011;58475;49.662;9.636;2022-11-11T03:37:38;16.10;;;6.07;;
70850;SDS011;58475;49.662;9.636;2022-11-11T03:40:41;12.57;;;6.18;;
70850;SDS011;58475;49.662;9.636;2022-11-11T03:43:27;16.77;;;6.13;;
70850;SDS011;58475;49.662;9.636;2022-11-11T03:46:12;11.80;;;5.85;;
70850;SDS011;58475;49.662;9.636;2022-11-11T03:48:57;16.85;;;6.15;;
70850;SDS011;58475;49.662;9.636;2022-11-11T03:51:41;16.25;;;6.65;;
70850;SDS011;58475;49.662;9.636;2022-11-11T03:54:24;15.27;;;5.93;;
70850;SDS011;58475;49.662;9.636;2022-11-11T03:57:08;11.90;;;6.22;;
70850;SDS011;58475;49.662;9.636;2022-11-11T04:00:12;14.15;;;5.47;;
70850;SDS011;58475;49.662;9.636;2022-11-11T04:03:05;17.63;;;5.60;;
70850;SDS011;58475;49.662;9.636;2022-11-11T04:09:12;20.77;;;5.68;;
70850;SDS011;58475;49.662;9.636;2022-11-11T04:12:15;14.75;;;5.93;;
70850;SDS011;58475;49.662;9.636;2022-11-11T04:14:59;16.42;;;5.43;;
70850;SDS011;58475;49.662;9.636;2022-11-11T04:18:02;30.48;;;5.45;;
70850;SDS011;58475;49.662;9.636;2022-11-11T04:20:46;39.53;;;5.80;;
70850;SDS011;58475;49.662;9.636;2022-11-11T04:23:49;22.63;;;5.13;;
70850;SDS011;58475;49.662;9.636;2022-11-11T04:26:33;13.43;;;5.93;;
70850;SDS011;58475;49.662;9.636;2022-11-11T04:29:16;38.65;;;7.15;;
70850;SDS011;58475;49.662;9.636;2022-11-11T04:32:14;13.00;;;5.32;;
70850;SDS011;58475;49.662;9.636;2022-11-11T04:35:18;14.73;;;4.85;;
70850;SDS011;58475;49.662;9.636;2022-11-11T04:38:02;7.80;;;4.18;;
70850;SDS011;58475;49.662;9.636;2022-11-11T04:41:05;11.38;;;4.50;;
70850;SDS011;58475;49.662;9.636;2022-11-11T04:43:51;6.63;;;3.95;;
70850;SDS011;58475;49.662;9.636;2022-11-11T04:46:54;9.82;;;4.25;;
70850;SDS011;58475;49.662;9.636;2022-11-11T04:49:38;11.65;;;4.82;;
70850;SDS011;58475;49.662;9.636;2022-11-11T04:52:22;16.95;;;5.13;;
70850;SDS011;58475;49.662;9.636;2022-11-11T04:55:09;12.95;;;4.53;;
70850;SDS011;58475;49.662;9.636;2022-11-11T04:58:12;13.90;;;5.43;;
70850;SDS011;58475;49.662;9.636;2022-11-11T05:00:57;24.35;;;5.30;;
70850;SDS011;58475;49.662;9.636;2022-11-11T05:03:41;18.48;;;5.15;;
70850;SDS011;58475;49.662;9.636;2022-11-11T05:06:25;9.75;;;4.93;;
70850;SDS011;58475;49.662;9.636;2022-11-11T05:09:28;12.73;;;4.50;;
70850;SDS011;58475;49.662;9.636;2022-11-11T05:12:12;8.98;;;4.65;;
70850;SDS011;58475;49.662;9.636;2022-11-11T05:14:56;10.25;;;4.88;;
70850;SDS011;58475;49.662;9.636;2022-11-11T05:17:58;7.88;;;4.53;;
70850;SDS011;58475;49.662;9.636;2022-11-11T05:21:01;14.07;;;5.93;;
70850;SDS011;58475;49.662;9.636;2022-11-11T05:24:04;22.10;;;5.90;;
70850;SDS011;58475;49.662;9.636;2022-11-11T05:27:06;11.80;;;5.63;;
70850;SDS011;58475;49.662;9.636;2022-11-11T05:29:51;10.07;;;4.80;;
70850;SDS011;58475;49.662;9.636;2022-11-11T05:32:35;23.30;;;5.30;;
70850;SDS011;58475;49.662;9.636;2022-11-11T05:35:19;12.70;;;5.25;;
70850;SDS011;58475;49.662;9.636;2022-11-11T05:38:03;10.18;;;4.80;;
70850;SDS011;58475;49.662;9.636;2022-11-11T05:41:06;9.52;;;5.00;;
70850;SDS011;58475;49.662;9.636;2022-11-11T05:43:50;13.07;;;4.85;;
70850;SDS011;58475;49.662;9.636;2022-11-11T05:46:34;10.55;;;4.65;;
70850;SDS011;58475;49.662;9.636;2022-11-11T05:49:18;32.60;;;5.13;;
70850;SDS011;58475;49.662;9.636;2022-11-11T05:52:03;31.17;;;5.38;;
70850;SDS011;58475;49.662;9.636;2022-11-11T05:54:48;14.63;;;5.53;;
70850;SDS011;58475;49.662;9.636;2022-11-11T05:57:32;15.13;;;5.28;;
70850;SDS011;58475;49.662;9.636;2022-11-11T06:00:16;21.98;;;5.05;;
70850;SDS011;58475;49.662;9.636;2022-11-11T06:03:01;19.73;;;4.53;;
70850;SDS011;58475;49.662;9.636;2022-11-11T06:05:47;30.33;;;5.28;;
70850;SDS011;58475;49.662;9.636;2022-11-11T06:08:30;21.10;;;4.97;;
70850;SDS011;58475;49.662;9.636;2022-11-11T06:11:14;15.57;;;5.40;;
70850;SDS011;58475;49.662;9.636;2022-11-11T06:13:58;18.20;;;5.30;;
70850;SDS011;58475;49.662;9.636;2022-11-11T06:16:42;47.53;;;6.88;;
70850;SDS011;58475;49.662;9.636;2022-11-11T06:19:26;24.15;;;6.05;;
70850;SDS011;58475;49.662;9.636;2022-11-11T06:22:10;14.27;;;6.13;;
70850;SDS011;58475;49.662;9.636;2022-11-11T06:24:54;31.15;;;5.70;;
70850;SDS011;58475;49.662;9.636;2022-11-11T06:27:58;21.50;;;6.00;;
70850;SDS011;58475;49.662;9.636;2022-11-11T06:30:42;20.10;;;6.00;;
70850;SDS011;58475;49.662;9.636;2022-11-11T06:33:27;28.45;;;8.55;;
70850;SDS011;58475;49.662;9.636;2022-11-11T06:36:11;26.90;;;7.32;;
70850;SDS011;58475;49.662;9.636;2022-11-11T06:38:56;15.07;;;6.85;;
70850;SDS011;58475;49.662;9.636;2022-11-11T06:41:41;21.60;;;8.07;;
70850;SDS011;58475;49.662;9.636;2022-11-11T06:44:24;16.52;;;6.72;;
70850;SDS011;58475;49.662;9.636;2022-11-11T06:47:09;17.85;;;6.97;;
70850;SDS011;58475;49.662;9.636;2022-11-11T06:49:52;28.25;;;6.43;;
70850;SDS011;58475;49.662;9.636;2022-11-11T06:52:36;25.17;;;6.45;;
70850;SDS011;58475;49.662;9.636;2022-11-11T06:55:20;25.88;;;6.22;;
70850;SDS011;58475;49.662;9.636;2022-11-11T06:58:09;14.23;;;5.32;;
70850;SDS011;58475;49.662;9.636;2022-11-11T07:00:54;23.73;;;7.20;;
70850;SDS011;58475;49.662;9.636;2022-11-11T07:03:38;20.42;;;5.93;;
70850;SDS011;58475;49.662;9.636;2022-11-11T07:06:22;19.50;;;5.90;;
70850;SDS011;58475;49.662;9.636;2022-11-11T07:09:06;33.95;;;6.55;;
70850;SDS011;58475;49.662;9.636;2022-11-11T07:11:50;19.02;;;6.82;;
70850;SDS011;58475;49.662;9.636;2022-11-11T07:14:34;14.02;;;6.78;;
70850;SDS011;58475;49.662;9.636;2022-11-11T07:17:18;22.98;;;7.55;;
70850;SDS011;58475;49.662;9.636;2022-11-11T07:20:02;22.35;;;6.47;;
70850;SDS011;58475;49.662;9.636;2022-11-11T07:22:47;29.67;;;5.32;;
70850;SDS011;58475;49.662;9.636;2022-11-11T07:25:31;29.98;;;5.82;;
70850;SDS011;58475;49.662;9.636;2022-11-11T07:28:15;11.20;;;5.65;;
70850;SDS011;58475;49.662;9.636;2022-11-11T07:30:59;15.55;;;5.38;;
70850;SDS011;58475;49.662;9.636;2022-11-11T07:33:43;18.70;;;5.68;;
70850;SDS011;58475;49.662;9.636;2022-11-11T07:36:27;22.17;;;5.97;;
70850;SDS011;58475;49.662;9.636;2022-11-11T07:39:11;15.05;;;5.63;;
70850;SDS011;58475;49.662;9.636;2022-11-11T07:41:55;21.27;;;5.88;;
70850;SDS011;58475;49.662;9.636;2022-11-11T07:44:39;37.30;;;6.53;;
70850;SDS011;58475;49.662;9.636;2022-11-11T07:47:23;49.10;;;6.05;;
70850;SDS011;58475;49.662;9.636;2022-11-11T07:50:07;11.65;;;5.30;;
70850;SDS011;58475;49.662;9.636;2022-11-11T07:52:52;16.27;;;4.82;;
70850;SDS011;58475;49.662;9.636;2022-11-11T07:55:36;35.15;;;5.68;;
70850;SDS011;58475;49.662;9.636;2022-11-11T07:58:20;17.70;;;5.53;;
70850;SDS011;58475;49.662;9.636;2022-11-11T08:01:04;25.35;;;5.63;;
70850;SDS011;58475;49.662;9.636;2022-11-11T08:03:48;17.65;;;6.30;;
70850;SDS011;58475;49.662;9.636;2022-11-11T08:06:32;22.95;;;6.60;;
70850;SDS011;58475;49.662;9.636;2022-11-11T08:09:16;25.73;;;6.20;;
70850;SDS011;58475;49.662;9.636;2022-11-11T08:12:00;28.90;;;7.13;;
70850;SDS011;58475;49.662;9.636;2022-11-11T08:15:03;26.02;;;6.55;;
70850;SDS011;58475;49.662;9.636;2022-11-11T08:17:48;23.73;;;6.25;;
70850;SDS011;58475;49.662;9.636;2022-11-11T08:20:32;26.83;;;6.40;;
70850;SDS011;58475;49.662;9.636;2022-11-11T08:23:16;17.95;;;6.00;;
70850;SDS011;58475;49.662;9.636;2022-11-11T08:26:05;10.13;;;5.20;;
70850;SDS011;58475;49.662;9.636;2022-11-11T08:28:50;28.25;;;5.93;;
70850;SDS011;58475;49.662;9.636;2022-11-11T08:31:35;22.05;;;5.63;;
70850;SDS011;58475;49.662;9.636;2022-11-11T08:34:21;21.20;;;6.45;;
70850;SDS011;58475;49.662;9.636;2022-11-11T08:37:05;23.00;;;5.88;;
70850;SDS011;58475;49.662;9.636;2022-11-11T08:39:49;21.10;;;5.72;;
70850;SDS011;58475;49.662;9.636;2022-11-11T08:42:35;22.15;;;6.10;;
70850;SDS011;58475;49.662;9.636;2022-11-11T08:45:19;23.75;;;6.25;;
70850;SDS011;58475;49.662;9.636;2022-11-11T08:48:03;36.10;;;6.80;;
70850;SDS011;58475;49.662;9.636;2022-11-11T08:50:50;22.98;;;6.28;;
70850;SDS011;58475;49.662;9.636;2022-11-11T08:53:35;20.60;;;5.75;;
70850;SDS011;58475;49.662;9.636;2022-11-11T08:56:19;32.08;;;6.28;;
70850;SDS011;58475;49.662;9.636;2022-11-11T08:59:03;12.98;;;5.65;;
70850;SDS011;58475;49.662;9.636;2022-11-11T09:01:46;15.98;;;6.45;;
70850;SDS011;58475;49.662;9.636;2022-11-11T09:04:30;18.85;;;5.80;;
70850;SDS011;58475;49.662;9.636;2022-11-11T09:07:14;18.77;;;6.25;;
70850;SDS011;58475;49.662;9.636;2022-11-11T09:09:58;14.27;;;5.93;;
70850;SDS011;58475;49.662;9.636;2022-11-11T09:12:42;20.60;;;6.47;;
70850;SDS011;58475;49.662;9.636;2022-11-11T09:15:26;13.48;;;7.13;;
70850;SDS011;58475;49.662;9.636;2022-11-11T09:18:11;13.90;;;6.75;;
70850;SDS011;58475;49.662;9.636;2022-11-11T09:20:57;18.98;;;6.32;;
70850;SDS011;58475;49.662;9.636;2022-11-11T09:23:42;20.88;;;7.13;;
70850;SDS011;58475;49.662;9.636;2022-11-11T09:26:26;15.75;;;6.68;;
70850;SDS011;58475;49.662;9.636;2022-11-11T09:29:10;16.40;;;6.72;;
70850;SDS011;58475;49.662;9.636;2022-11-11T09:31:54;20.27;;;6.05;;
70850;SDS011;58475;49.662;9.636;2022-11-11T09:34:38;9.50;;;5.40;;
70850;SDS011;58475;49.662;9.636;2022-11-11T09:37:22;24.77;;;5.15;;
70850;SDS011;58475;49.662;9.636;2022-11-11T09:40:08;12.15;;;5.55;;
70850;SDS011;58475;49.662;9.636;2022-11-11T09:46:11;10.57;;;4.70;;
70850;SDS011;58475;49.662;9.636;2022-11-11T09:49:10;10.63;;;4.88;;
70850;SDS011;58475;49.662;9.636;2022-11-11T09:52:16;13.50;;;5.20;;
70850;SDS011;58475;49.662;9.636;2022-11-11T09:55:22;9.60;;;4.78;;
70850;SDS011;58475;49.662;9.636;2022-11-11T09:58:18;12.85;;;5.32;;
70850;SDS011;58475;49.662;9.636;2022-11-11T10:01:09;12.65;;;4.10;;
70850;SDS011;58475;49.662;9.636;2022-11-11T10:04:11;7.88;;;4.38;;
70850;SDS011;58475;49.662;9.636;2022-11-11T10:07:08;11.35;;;4.20;;
70850;SDS011;58475;49.662;9.636;2022-11-11T10:10:11;15.10;;;4.57;;
70850;SDS011;58475;49.662;9.636;2022-11-11T10:13:03;13.80;;;4.25;;
70850;SDS011;58475;49.662;9.636;2022-11-11T10:16:02;11.85;;;4.55;;
70850;SDS011;58475;49.662;9.636;2022-11-11T10:22:40;12.13;;;6.97;;
70850;SDS011;58475;49.662;9.636;2022-11-11T10:25:25;26.95;;;7.05;;
70850;SDS011;58475;49.662;9.636;2022-11-11T10:28:12;10.15;;;5.93;;
70850;SDS011;58475;49.662;9.636;2022-11-11T10:31:00;11.77;;;6.03;;
70850;SDS011;58475;49.662;9.636;2022-11-11T10:33:59;9.55;;;5.55;;
70850;SDS011;58475;49.662;9.636;2022-11-11T10:36:53;9.77;;;5.45;;
70850;SDS011;58475;49.662;9.636;2022-11-11T10:42:34;9.07;;;5.85;;
70850;SDS011;58475;49.662;9.636;2022-11-11T10:48:27;10.10;;;6.38;;
70850;SDS011;58475;49.662;9.636;2022-11-11T10:51:18;10.20;;;6.38;;
70850;SDS011;58475;49.662;9.636;2022-11-11T10:59:48;8.88;;;5.93;;
70850;SDS011;58475;49.662;9.636;2022-11-11T11:02:52;8.80;;;5.15;;
70850;SDS011;58475;49.662;9.636;2022-11-11T11:05:47;6.40;;;4.00;;
70850;SDS011;58475;49.662;9.636;2022-11-11T11:08:34;7.70;;;4.32;;
70850;SDS011;58475;49.662;9.636;2022-11-11T11:11:35;7.32;;;4.30;;
70850;SDS011;58475;49.662;9.636;2022-11-11T11:14:27;6.75;;;4.25;;
70850;SDS011;58475;49.662;9.636;2022-11-11T11:17:14;8.30;;;4.88;;
70850;SDS011;58475;49.662;9.636;2022-11-11T11:20:07;9.57;;;4.90;;
70850;SDS011;58475;49.662;9.636;2022-11-11T11:23:01;9.02;;;5.50;;
70850;SDS011;58475;49.662;9.636;2022-11-11T11:25:50;9.82;;;6.20;;
70850;SDS011;58475;49.662;9.636;2022-11-11T11:28:57;8.75;;;6.18;;
70850;SDS011;58475;49.662;9.636;2022-11-11T11:31:44;11.85;;;6.95;;
70850;SDS011;58475;49.662;9.636;2022-11-11T11:34:41;13.00;;;8.00;;
70850;SDS011;58475;49.662;9.636;2022-11-11T11:37:35;10.73;;;7.65;;
70850;SDS011;58475;49.662;9.636;2022-11-11T11:43:35;8.80;;;5.63;;
70850;SDS011;58475;49.662;9.636;2022-11-11T11:46:27;9.60;;;5.45;;
70850;SDS011;58475;49.662;9.636;2022-11-11T11:52:49;9.27;;;5.60;;
70850;SDS011;58475;49.662;9.636;2022-11-11T11:55:39;8.75;;;5.63;;
70850;SDS011;58475;49.662;9.636;2022-11-11T11:58:29;8.75;;;5.18;;
70850;SDS011;58475;49.662;9.636;2022-11-11T12:01:33;8.27;;;5.40;;
70850;SDS011;58475;49.662;9.636;2022-11-11T12:04:31;9.93;;;5.88;;
70850;SDS011;58475;49.662;9.636;2022-11-11T12:10:38;8.27;;;5.07;;
70850;SDS011;58475;49.662;9.636;2022-11-11T12:16:34;6.63;;;4.20;;
70850;SDS011;58475;49.662;9.636;2022-11-11T12:37:15;5.32;;;3.10;;
70850;SDS011;58475;49.662;9.636;2022-11-11T12:40:53;6.57;;;3.33;;
70850;SDS011;58475;49.662;9.636;2022-11-11T12:49:05;6.78;;;3.15;;
70850;SDS011;58475;49.662;9.636;2022-11-11T12:55:17;5.70;;;3.40;;
70850;SDS011;58475;49.662;9.636;2022-11-11T12:58:23;5.45;;;3.28;;
70850;SDS011;58475;49.662;9.636;2022-11-11T13:01:24;5.72;;;3.45;;
70850;SDS011;58475;49.662;9.636;2022-11-11T13:10:29;6.70;;;3.45;;
70850;SDS011;58475;49.662;9.636;2022-11-11T13:13:34;6.75;;;3.90;;
70850;SDS011;58475;49.662;9.636;2022-11-11T13:16:32;7.50;;;3.70;;
70850;SDS011;58475;49.662;9.636;2022-11-11T13:22:32;6.82;;;3.85;;
70850;SDS011;58475;49.662;9.636;2022-11-11T13:25:19;6.30;;;3.60;;
70850;SDS011;58475;49.662;9.636;2022-11-11T13:28:13;6.85;;;3.45;;
70850;SDS011;58475;49.662;9.636;2022-11-11T13:31:20;6.30;;;3.72;;
70850;SDS011;58475;49.662;9.636;2022-11-11T13:34:10;5.70;;;3.40;;
70850;SDS011;58475;49.662;9.636;2022-11-11T13:36:56;6.40;;;3.38;;
70850;SDS011;58475;49.662;9.636;2022-11-11T13:39:44;5.88;;;3.58;;
70850;SDS011;58475;49.662;9.636;2022-11-11T13:45:26;5.97;;;3.28;;
70850;SDS011;58475;49.662;9.636;2022-11-11T13:48:20;6.93;;;3.50;;
70850;SDS011;58475;49.662;9.636;2022-11-11T13:51:23;5.85;;;3.72;;
70850;SDS011;58475;49.662;9.636;2022-11-11T13:54:20;5.30;;;3.30;;
70850;SDS011;58475;49.662;9.636;2022-11-11T14:08:58;5.28;;;3.33;;
70850;SDS011;58475;49.662;9.636;2022-11-11T14:11:43;6.25;;;3.45;;
70850;SDS011;58475;49.662;9.636;2022-11-11T14:17:17;6.80;;;4.03;;
70850;SDS011;58475;49.662;9.636;2022-11-11T14:23:31;6.55;;;4.07;;
70850;SDS011;58475;49.662;9.636;2022-11-11T14:26:22;7.07;;;4.13;;
70850;SDS011;58475;49.662;9.636;2022-11-11T14:29:13;6.93;;;4.03;;
70850;SDS011;58475;49.662;9.636;2022-11-11T14:32:03;7.10;;;3.92;;
70850;SDS011;58475;49.662;9.636;2022-11-11T14:34:51;7.40;;;3.95;;
70850;SDS011;58475;49.662;9.636;2022-11-11T14:43:38;7.75;;;4.28;;
70850;SDS011;58475;49.662;9.636;2022-11-11T14:46:23;7.80;;;4.50;;
70850;SDS011;58475;49.662;9.636;2022-11-11T14:49:07;8.00;;;4.97;;
70850;SDS011;58475;49.662;9.636;2022-11-11T14:51:55;8.90;;;4.78;;
70850;SDS011;58475;49.662;9.636;2022-11-11T15:00:32;8.95;;;5.20;;
70850;SDS011;58475;49.662;9.636;2022-11-11T15:03:38;8.00;;;5.20;;
70850;SDS011;58475;49.662;9.636;2022-11-11T15:06:46;9.25;;;5.15;;
70850;SDS011;58475;49.662;9.636;2022-11-11T15:28:55;8.35;;;5.20;;
70850;SDS011;58475;49.662;9.636;2022-11-11T15:37:18;11.23;;;5.28;;
70850;SDS011;58475;49.662;9.636;2022-11-11T15:40:04;14.50;;;9.82;;
70850;SDS011;58475;49.662;9.636;2022-11-11T15:42:49;9.90;;;6.70;;
70850;SDS011;58475;49.662;9.636;2022-11-11T15:45:34;10.55;;;6.88;;
70850;SDS011;58475;49.662;9.636;2022-11-11T15:48:22;15.80;;;9.70;;
70850;SDS011;58475;49.662;9.636;2022-11-11T15:51:29;18.05;;;12.20;;
70850;SDS011;58475;49.662;9.636;2022-11-11T15:57:14;14.43;;;8.38;;
70850;SDS011;58475;49.662;9.636;2022-11-11T16:00:18;10.90;;;6.65;;
70850;SDS011;58475;49.662;9.636;2022-11-11T16:03:15;10.73;;;6.45;;
70850;SDS011;58475;49.662;9.636;2022-11-11T16:06:03;13.73;;;9.18;;
70850;SDS011;58475;49.662;9.636;2022-11-11T16:08:51;16.33;;;10.48;;
70850;SDS011;58475;49.662;9.636;2022-11-11T16:11:39;29.25;;;16.58;;
70850;SDS011;58475;49.662;9.636;2022-11-11T16:14:31;38.30;;;21.25;;
70850;SDS011;58475;49.662;9.636;2022-11-11T16:17:19;35.83;;;18.83;;
70850;SDS011;58475;49.662;9.636;2022-11-11T16:20:04;22.30;;;13.15;;
70850;SDS011;58475;49.662;9.636;2022-11-11T16:22:55;19.65;;;14.18;;
70850;SDS011;58475;49.662;9.636;2022-11-11T16:25:44;15.23;;;9.98;;
70850;SDS011;58475;49.662;9.636;2022-11-11T16:28:41;13.52;;;9.00;;
70850;SDS011;58475;49.662;9.636;2022-11-11T16:37:10;10.20;;;6.22;;
70850;SDS011;58475;49.662;9.636;2022-11-11T16:39:56;12.38;;;8.20;;
70850;SDS011;58475;49.662;9.636;2022-11-11T16:43:19;11.43;;;6.70;;
70850;SDS011;58475;49.662;9.636;2022-11-11T16:46:05;10.63;;;6.32;;
70850;SDS011;58475;49.662;9.636;2022-11-11T16:48:51;14.30;;;7.50;;
70850;SDS011;58475;49.662;9.636;2022-11-11T16:51:43;13.63;;;8.20;;
70850;SDS011;58475;49.662;9.636;2022-11-11T16:54:29;15.60;;;9.07;;
70850;SDS011;58475;49.662;9.636;2022-11-11T16:57:20;12.32;;;8.27;;
70850;SDS011;58475;49.662;9.636;2022-11-11T17:00:07;11.30;;;7.10;;
70850;SDS011;58475;49.662;9.636;2022-11-11T17:03:06;13.75;;;8.13;;
70850;SDS011;58475;49.662;9.636;2022-11-11T17:05:53;14.07;;;8.73;;
70850;SDS011;58475;49.662;9.636;2022-11-11T17:08:51;17.40;;;9.52;;
70850;SDS011;58475;49.662;9.636;2022-11-11T17:14:22;16.83;;;8.70;;
70850;SDS011;58475;49.662;9.636;2022-11-11T17:17:07;13.32;;;7.68;;
70850;SDS011;58475;49.662;9.636;2022-11-11T17:19:52;22.55;;;13.02;;
70850;SDS011;58475;49.662;9.636;2022-11-11T17:22:47;18.80;;;9.73;;
70850;SDS011;58475;49.662;9.636;2022-11-11T17:25:36;19.45;;;9.07;;
70850;SDS011;58475;49.662;9.636;2022-11-11T17:28:20;22.40;;;8.13;;
70850;SDS011;58475;49.662;9.636;2022-11-11T17:31:08;17.42;;;9.70;;
70850;SDS011;58475;49.662;9.636;2022-11-11T17:33:56;18.15;;;8.93;;
70850;SDS011;58475;49.662;9.636;2022-11-11T17:36:40;20.17;;;10.05;;
70850;SDS011;58475;49.662;9.636;2022-11-11T17:39:24;22.13;;;11.27;;
70850;SDS011;58475;49.662;9.636;2022-11-11T17:42:08;34.17;;;16.75;;
70850;SDS011;58475;49.662;9.636;2022-11-11T17:44:52;27.85;;;11.40;;
70850;SDS011;58475;49.662;9.636;2022-11-11T17:47:36;19.27;;;9.55;;
70850;SDS011;58475;49.662;9.636;2022-11-11T17:50:20;22.77;;;10.65;;
70850;SDS011;58475;49.662;9.636;2022-11-11T17:53:04;22.10;;;10.18;;
70850;SDS011;58475;49.662;9.636;2022-11-11T17:55:51;23.05;;;10.55;;
70850;SDS011;58475;49.662;9.636;2022-11-11T17:58:35;21.73;;;10.02;;
70850;SDS011;58475;49.662;9.636;2022-11-11T18:01:19;21.45;;;9.65;;
70850;SDS011;58475;49.662;9.636;2022-11-11T18:04:04;15.38;;;7.55;;
70850;SDS011;58475;49.662;9.636;2022-11-11T18:06:49;10.88;;;5.90;;
70850;SDS011;58475;49.662;9.636;2022-11-11T18:09:33;14.02;;;7.97;;
70850;SDS011;58475;49.662;9.636;2022-11-11T18:12:17;20.95;;;11.52;;
70850;SDS011;58475;49.662;9.636;2022-11-11T18:15:01;19.55;;;10.93;;
70850;SDS011;58475;49.662;9.636;2022-11-11T18:17:45;14.95;;;7.70;;
70850;SDS011;58475;49.662;9.636;2022-11-11T18:20:29;18.92;;;9.82;;
70850;SDS011;58475;49.662;9.636;2022-11-11T18:23:13;14.82;;;9.23;;
70850;SDS011;58475;49.662;9.636;2022-11-11T18:25:57;16.88;;;10.15;;
70850;SDS011;58475;49.662;9.636;2022-11-11T18:28:42;54.38;;;25.63;;
70850;SDS011;58475;49.662;9.636;2022-11-11T18:31:26;35.88;;;19.30;;
70850;SDS011;58475;49.662;9.636;2022-11-11T18:34:10;15.43;;;9.52;;
70850;SDS011;58475;49.662;9.636;2022-11-11T18:36:54;13.80;;;8.80;;
70850;SDS011;58475;49.662;9.636;2022-11-11T18:39:38;11.82;;;6.97;;
70850;SDS011;58475;49.662;9.636;2022-11-11T18:42:22;22.92;;;13.50;;
70850;SDS011;58475;49.662;9.636;2022-11-11T18:45:06;29.20;;;15.68;;
70850;SDS011;58475;49.662;9.636;2022-11-11T18:47:50;45.10;;;14.80;;
70850;SDS011;58475;49.662;9.636;2022-11-11T18:50:34;62.15;;;33.15;;
70850;SDS011;58475;49.662;9.636;2022-11-11T18:53:18;64.47;;;15.05;;
70850;SDS011;58475;49.662;9.636;2022-11-11T18:56:02;20.45;;;10.73;;
70850;SDS011;58475;49.662;9.636;2022-11-11T18:58:48;27.15;;;11.95;;
70850;SDS011;58475;49.662;9.636;2022-11-11T19:01:36;18.35;;;10.63;;
70850;SDS011;58475;49.662;9.636;2022-11-11T19:04:22;13.40;;;7.80;;
70850;SDS011;58475;49.662;9.636;2022-11-11T19:07:05;9.75;;;6.10;;
70850;SDS011;58475;49.662;9.636;2022-11-11T19:09:49;12.20;;;6.65;;